sensor_id;sensor_type;location;lat;lon;timestamp;P1;durP1;ratioP1;P2;durP2;ratioP2
7460;SDS011;6757;52.258;12.840;2023-04-06T00:00:41;1.65;;;1.55;;
7460;SDS011;6757;52.258;12.840;2023-04-06T00:03:08;1.48;;;0.95;;
7460;SDS011;6757;52.258;12.840;2023-04-06T00:05:35;1.40;;;1.33;;
7460;SDS011;6757;52.258;12.840;2023-04-06T00:08:04;1.75;;;0.95;;
7460;SDS011;6757;52.258;12.840;2023-04-06T00:10:31;2.50;;;0.47;;
7460;SDS011;6757;52.258;12.840;2023-04-06T00:12:58;1.27;;;0.70;;
7460;SDS011;6757;52.258;12.840;2023-04-06T00:15:25;2.75;;;1.30;;
7460;SDS011;6757;52.258;12.840;2023-04-06T00:17:55;0.50;;;0.50;;
7460;SDS011;6757;52.258;12.840;2023-04-06T00:20:22;0.57;;;0.52;;
7460;SDS011;6757;52.258;12.840;2023-04-06T00:22:48;0.85;;;0.30;;
7460;SDS011;6757;52.258;12.840;2023-04-06T00:25:16;1.05;;;0.95;;
7460;SDS011;6757;52.258;12.840;2023-04-06T00:27:42;0.85;;;0.68;;
7460;SDS011;6757;52.258;12.840;2023-04-06T00:30:10;0.30;;;0.30;;
7460;SDS011;6757;52.258;12.840;2023-04-06T00:32:37;0.17;;;0.17;;
7460;SDS011;6757;52.258;12.840;2023-04-06T00:35:06;0.40;;;0.28;;
7460;SDS011;6757;52.258;12.840;2023-04-06T00:37:33;1.58;;;0.80;;
7460;SDS011;6757;52.258;12.840;2023-04-06T00:40:00;1.20;;;0.88;;
7460;SDS011;6757;52.258;12.840;2023-04-06T00:42:27;0.13;;;0.13;;
7460;SDS011;6757;52.258;12.840;2023-04-06T00:44:55;1.33;;;0.57;;
7460;SDS011;6757;52.258;12.840;2023-04-06T00:47:26;2.75;;;1.05;;
7460;SDS011;6757;52.258;12.840;2023-04-06T00:49:53;1.60;;;1.10;;
7460;SDS011;6757;52.258;12.840;2023-04-06T00:52:22;2.75;;;0.70;;
7460;SDS011;6757;52.258;12.840;2023-04-06T00:54:49;0.20;;;0.20;;
7460;SDS011;6757;52.258;12.840;2023-04-06T00:57:17;1.02;;;0.73;;
7460;SDS011;6757;52.258;12.840;2023-04-06T00:59:44;0.47;;;0.47;;
7460;SDS011;6757;52.258;12.840;2023-04-06T01:02:11;0.73;;;0.73;;
7460;SDS011;6757;52.258;12.840;2023-04-06T01:04:38;0.55;;;0.50;;
7460;SDS011;6757;52.258;12.840;2023-04-06T01:07:05;0.52;;;0.17;;
7460;SDS011;6757;52.258;12.840;2023-04-06T01:09:33;1.58;;;1.27;;
7460;SDS011;6757;52.258;12.840;2023-04-06T01:12:00;1.20;;;0.70;;
7460;SDS011;6757;52.258;12.840;2023-04-06T01:14:28;0.45;;;0.43;;
7460;SDS011;6757;52.258;12.840;2023-04-06T01:16:57;1.60;;;1.33;;
7460;SDS011;6757;52.258;12.840;2023-04-06T01:19:25;0.28;;;0.28;;
7460;SDS011;6757;52.258;12.840;2023-04-06T01:21:52;0.20;;;0.20;;
7460;SDS011;6757;52.258;12.840;2023-04-06T01:24:20;1.33;;;0.93;;
7460;SDS011;6757;52.258;12.840;2023-04-06T01:26:48;1.25;;;0.95;;
7460;SDS011;6757;52.258;12.840;2023-04-06T01:29:15;0.25;;;0.25;;
7460;SDS011;6757;52.258;12.840;2023-04-06T01:31:41;3.72;;;2.10;;
7460;SDS011;6757;52.258;12.840;2023-04-06T01:34:08;1.85;;;0.40;;
7460;SDS011;6757;52.258;12.840;2023-04-06T01:36:35;0.57;;;0.57;;
7460;SDS011;6757;52.258;12.840;2023-04-06T01:39:02;0.28;;;0.28;;
7460;SDS011;6757;52.258;12.840;2023-04-06T01:41:30;1.65;;;0.75;;
7460;SDS011;6757;52.258;12.840;2023-04-06T01:43:57;0.17;;;0.17;;
7460;SDS011;6757;52.258;12.840;2023-04-06T01:46:24;1.38;;;0.70;;
7460;SDS011;6757;52.258;12.840;2023-04-06T01:48:51;0.82;;;0.45;;
7460;SDS011;6757;52.258;12.840;2023-04-06T01:51:18;0.75;;;0.75;;
7460;SDS011;6757;52.258;12.840;2023-04-06T01:53:45;0.40;;;0.40;;
7460;SDS011;6757;52.258;12.840;2023-04-06T01:56:13;0.28;;;0.28;;
7460;SDS011;6757;52.258;12.840;2023-04-06T01:58:41;0.10;;;0.10;;
7460;SDS011;6757;52.258;12.840;2023-04-06T02:01:08;1.52;;;0.35;;
7460;SDS011;6757;52.258;12.840;2023-04-06T02:03:35;0.65;;;0.65;;
7460;SDS011;6757;52.258;12.840;2023-04-06T02:06:02;0.88;;;0.80;;
7460;SDS011;6757;52.258;12.840;2023-04-06T02:08:29;0.22;;;0.22;;
7460;SDS011;6757;52.258;12.840;2023-04-06T02:10:56;0.55;;;0.55;;
7460;SDS011;6757;52.258;12.840;2023-04-06T02:13:23;0.20;;;0.20;;
7460;SDS011;6757;52.258;12.840;2023-04-06T02:15:51;0.57;;;0.57;;
7460;SDS011;6757;52.258;12.840;2023-04-06T02:18:18;0.88;;;0.50;;
7460;SDS011;6757;52.258;12.840;2023-04-06T02:20:45;0.40;;;0.40;;
7460;SDS011;6757;52.258;12.840;2023-04-06T02:23:12;0.47;;;0.47;;
7460;SDS011;6757;52.258;12.840;2023-04-06T02:25:39;0.10;;;0.10;;
7460;SDS011;6757;52.258;12.840;2023-04-06T02:28:06;4.35;;;1.48;;
7460;SDS011;6757;52.258;12.840;2023-04-06T02:30:33;0.82;;;0.73;;
7460;SDS011;6757;52.258;12.840;2023-04-06T02:33:01;0.20;;;0.20;;
7460;SDS011;6757;52.258;12.840;2023-04-06T02:35:29;0.38;;;0.38;;
7460;SDS011;6757;52.258;12.840;2023-04-06T02:37:57;2.28;;;0.88;;
7460;SDS011;6757;52.258;12.840;2023-04-06T02:40:24;1.27;;;0.52;;
7460;SDS011;6757;52.258;12.840;2023-04-06T02:42:51;1.35;;;0.82;;
7460;SDS011;6757;52.258;12.840;2023-04-06T02:45:18;1.17;;;1.08;;
7460;SDS011;6757;52.258;12.840;2023-04-06T02:47:45;0.75;;;0.38;;
7460;SDS011;6757;52.258;12.840;2023-04-06T02:50:13;0.32;;;0.32;;
7460;SDS011;6757;52.258;12.840;2023-04-06T02:52:40;2.85;;;0.47;;
7460;SDS011;6757;52.258;12.840;2023-04-06T02:55:07;1.10;;;0.95;;
7460;SDS011;6757;52.258;12.840;2023-04-06T02:57:35;0.68;;;0.68;;
7460;SDS011;6757;52.258;12.840;2023-04-06T03:00:02;0.30;;;0.30;;
7460;SDS011;6757;52.258;12.840;2023-04-06T03:02:29;0.52;;;0.52;;
7460;SDS011;6757;52.258;12.840;2023-04-06T03:04:56;0.60;;;0.32;;
7460;SDS011;6757;52.258;12.840;2023-04-06T03:07:25;0.32;;;0.32;;
7460;SDS011;6757;52.258;12.840;2023-04-06T03:09:51;0.30;;;0.30;;
7460;SDS011;6757;52.258;12.840;2023-04-06T03:12:18;0.45;;;0.45;;
7460;SDS011;6757;52.258;12.840;2023-04-06T03:14:45;1.58;;;0.75;;
7460;SDS011;6757;52.258;12.840;2023-04-06T03:17:12;0.22;;;0.22;;
7460;SDS011;6757;52.258;12.840;2023-04-06T03:19:39;0.55;;;0.30;;
7460;SDS011;6757;52.258;12.840;2023-04-06T03:22:06;2.28;;;1.42;;
7460;SDS011;6757;52.258;12.840;2023-04-06T03:24:34;0.28;;;0.28;;
7460;SDS011;6757;52.258;12.840;2023-04-06T03:27:01;0.50;;;0.50;;
7460;SDS011;6757;52.258;12.840;2023-04-06T03:29:28;0.30;;;0.30;;
7460;SDS011;6757;52.258;12.840;2023-04-06T03:31:56;1.00;;;0.68;;
7460;SDS011;6757;52.258;12.840;2023-04-06T03:34:23;0.30;;;0.30;;
7460;SDS011;6757;52.258;12.840;2023-04-06T03:36:52;0.70;;;0.63;;
7460;SDS011;6757;52.258;12.840;2023-04-06T03:39:19;0.30;;;0.30;;
7460;SDS011;6757;52.258;12.840;2023-04-06T03:41:48;0.43;;;0.43;;
7460;SDS011;6757;52.258;12.840;2023-04-06T03:44:15;1.25;;;0.95;;
7460;SDS011;6757;52.258;12.840;2023-04-06T03:46:42;0.25;;;0.25;;
7460;SDS011;6757;52.258;12.840;2023-04-06T03:49:10;0.40;;;0.40;;
7460;SDS011;6757;52.258;12.840;2023-04-06T03:51:37;0.60;;;0.60;;
7460;SDS011;6757;52.258;12.840;2023-04-06T03:54:04;0.63;;;0.35;;
7460;SDS011;6757;52.258;12.840;2023-04-06T03:56:31;0.70;;;0.70;;
7460;SDS011;6757;52.258;12.840;2023-04-06T03:58:59;0.40;;;0.40;;
7460;SDS011;6757;52.258;12.840;2023-04-06T04:01:27;0.50;;;0.50;;
7460;SDS011;6757;52.258;12.840;2023-04-06T04:03:54;0.93;;;0.90;;
7460;SDS011;6757;52.258;12.840;2023-04-06T04:06:21;0.20;;;0.20;;
7460;SDS011;6757;52.258;12.840;2023-04-06T04:08:48;4.28;;;0.73;;
7460;SDS011;6757;52.258;12.840;2023-04-06T04:11:15;6.82;;;1.17;;
7460;SDS011;6757;52.258;12.840;2023-04-06T04:13:42;0.30;;;0.30;;
7460;SDS011;6757;52.258;12.840;2023-04-06T04:16:14;0.10;;;0.10;;
7460;SDS011;6757;52.258;12.840;2023-04-06T04:18:41;0.10;;;0.10;;
7460;SDS011;6757;52.258;12.840;2023-04-06T04:21:08;0.43;;;0.43;;
7460;SDS011;6757;52.258;12.840;2023-04-06T04:23:35;1.35;;;1.23;;
7460;SDS011;6757;52.258;12.840;2023-04-06T04:26:02;0.35;;;0.35;;
7460;SDS011;6757;52.258;12.840;2023-04-06T04:28:29;0.60;;;0.60;;
7460;SDS011;6757;52.258;12.840;2023-04-06T04:30:56;0.13;;;0.13;;
7460;SDS011;6757;52.258;12.840;2023-04-06T04:33:24;0.03;;;0.03;;
7460;SDS011;6757;52.258;12.840;2023-04-06T04:35:51;0.38;;;0.38;;
7460;SDS011;6757;52.258;12.840;2023-04-06T04:38:18;0.47;;;0.47;;
7460;SDS011;6757;52.258;12.840;2023-04-06T04:40:45;0.32;;;0.32;;
7460;SDS011;6757;52.258;12.840;2023-04-06T04:43:12;0.22;;;0.22;;
7460;SDS011;6757;52.258;12.840;2023-04-06T04:45:39;0.30;;;0.30;;
7460;SDS011;6757;52.258;12.840;2023-04-06T04:48:06;0.17;;;0.17;;
7460;SDS011;6757;52.258;12.840;2023-04-06T04:50:35;0.28;;;0.28;;
7460;SDS011;6757;52.258;12.840;2023-04-06T04:53:01;0.22;;;0.22;;
7460;SDS011;6757;52.258;12.840;2023-04-06T04:55:30;0.70;;;0.45;;
7460;SDS011;6757;52.258;12.840;2023-04-06T04:57:57;0.40;;;0.40;;
7460;SDS011;6757;52.258;12.840;2023-04-06T05:00:24;0.43;;;0.43;;
7460;SDS011;6757;52.258;12.840;2023-04-06T05:02:51;0.20;;;0.20;;
7460;SDS011;6757;52.258;12.840;2023-04-06T05:05:17;0.20;;;0.20;;
7460;SDS011;6757;52.258;12.840;2023-04-06T05:07:46;0.28;;;0.28;;
7460;SDS011;6757;52.258;12.840;2023-04-06T05:10:12;0.50;;;0.50;;
7460;SDS011;6757;52.258;12.840;2023-04-06T05:12:40;0.25;;;0.25;;
7460;SDS011;6757;52.258;12.840;2023-04-06T05:15:07;0.50;;;0.50;;
7460;SDS011;6757;52.258;12.840;2023-04-06T05:17:35;0.63;;;0.63;;
7460;SDS011;6757;52.258;12.840;2023-04-06T05:20:02;0.25;;;0.25;;
7460;SDS011;6757;52.258;12.840;2023-04-06T05:22:30;0.30;;;0.30;;
7460;SDS011;6757;52.258;12.840;2023-04-06T05:24:58;0.10;;;0.10;;
7460;SDS011;6757;52.258;12.840;2023-04-06T05:27:25;0.28;;;0.28;;
7460;SDS011;6757;52.258;12.840;2023-04-06T05:29:52;0.13;;;0.13;;
7460;SDS011;6757;52.258;12.840;2023-04-06T05:32:19;0.28;;;0.28;;
7460;SDS011;6757;52.258;12.840;2023-04-06T05:34:47;0.77;;;0.70;;
7460;SDS011;6757;52.258;12.840;2023-04-06T05:37:14;0.17;;;0.17;;
7460;SDS011;6757;52.258;12.840;2023-04-06T05:39:41;0.45;;;0.40;;
7460;SDS011;6757;52.258;12.840;2023-04-06T05:42:09;2.10;;;1.38;;
7460;SDS011;6757;52.258;12.840;2023-04-06T05:44:36;0.20;;;0.20;;
7460;SDS011;6757;52.258;12.840;2023-04-06T05:47:04;0.40;;;0.40;;
7460;SDS011;6757;52.258;12.840;2023-04-06T05:49:31;1.67;;;1.58;;
7460;SDS011;6757;52.258;12.840;2023-04-06T05:51:58;0.25;;;0.25;;
7460;SDS011;6757;52.258;12.840;2023-04-06T05:54:25;2.17;;;0.88;;
7460;SDS011;6757;52.258;12.840;2023-04-06T05:56:51;1.35;;;0.45;;
7460;SDS011;6757;52.258;12.840;2023-04-06T05:59:20;1.15;;;1.05;;
7460;SDS011;6757;52.258;12.840;2023-04-06T06:01:48;1.55;;;0.88;;
7460;SDS011;6757;52.258;12.840;2023-04-06T06:04:15;0.65;;;0.65;;
7460;SDS011;6757;52.258;12.840;2023-04-06T06:06:42;0.60;;;0.55;;
7460;SDS011;6757;52.258;12.840;2023-04-06T06:09:09;0.50;;;0.50;;
7460;SDS011;6757;52.258;12.840;2023-04-06T06:11:36;0.30;;;0.30;;
7460;SDS011;6757;52.258;12.840;2023-04-06T06:14:03;0.50;;;0.50;;
7460;SDS011;6757;52.258;12.840;2023-04-06T06:16:31;0.32;;;0.32;;
7460;SDS011;6757;52.258;12.840;2023-04-06T06:18:58;0.22;;;0.22;;
7460;SDS011;6757;52.258;12.840;2023-04-06T06:21:25;0.32;;;0.32;;
7460;SDS011;6757;52.258;12.840;2023-04-06T06:23:52;0.57;;;0.57;;
7460;SDS011;6757;52.258;12.840;2023-04-06T06:26:19;0.35;;;0.35;;
7460;SDS011;6757;52.258;12.840;2023-04-06T06:28:46;0.20;;;0.20;;
7460;SDS011;6757;52.258;12.840;2023-04-06T06:31:13;1.55;;;0.65;;
7460;SDS011;6757;52.258;12.840;2023-04-06T06:33:42;1.42;;;1.33;;
7460;SDS011;6757;52.258;12.840;2023-04-06T06:36:09;1.55;;;1.05;;
7460;SDS011;6757;52.258;12.840;2023-04-06T06:38:36;1.30;;;1.05;;
7460;SDS011;6757;52.258;12.840;2023-04-06T06:41:03;0.68;;;0.63;;
7460;SDS011;6757;52.258;12.840;2023-04-06T06:43:30;0.55;;;0.55;;
7460;SDS011;6757;52.258;12.840;2023-04-06T06:45:57;0.35;;;0.35;;
7460;SDS011;6757;52.258;12.840;2023-04-06T06:48:24;0.28;;;0.28;;
7460;SDS011;6757;52.258;12.840;2023-04-06T06:50:53;1.58;;;1.00;;
7460;SDS011;6757;52.258;12.840;2023-04-06T06:53:20;0.35;;;0.35;;
7460;SDS011;6757;52.258;12.840;2023-04-06T06:55:47;0.55;;;0.55;;
7460;SDS011;6757;52.258;12.840;2023-04-06T06:58:14;2.72;;;1.10;;
7460;SDS011;6757;52.258;12.840;2023-04-06T07:00:44;0.25;;;0.25;;
7460;SDS011;6757;52.258;12.840;2023-04-06T07:03:11;2.70;;;1.50;;
7460;SDS011;6757;52.258;12.840;2023-04-06T07:05:38;1.05;;;0.57;;
7460;SDS011;6757;52.258;12.840;2023-04-06T07:08:15;1.45;;;1.02;;
7460;SDS011;6757;52.258;12.840;2023-04-06T07:10:42;0.77;;;0.77;;
7460;SDS011;6757;52.258;12.840;2023-04-06T07:13:09;0.85;;;0.77;;
7460;SDS011;6757;52.258;12.840;2023-04-06T07:15:36;4.43;;;2.10;;
7460;SDS011;6757;52.258;12.840;2023-04-06T07:18:03;1.25;;;1.02;;
7460;SDS011;6757;52.258;12.840;2023-04-06T07:20:29;1.02;;;0.95;;
7460;SDS011;6757;52.258;12.840;2023-04-06T07:22:56;1.10;;;1.10;;
7460;SDS011;6757;52.258;12.840;2023-04-06T07:25:24;1.75;;;1.52;;
7460;SDS011;6757;52.258;12.840;2023-04-06T07:27:51;2.75;;;1.27;;
7460;SDS011;6757;52.258;12.840;2023-04-06T07:30:18;2.60;;;1.67;;
7460;SDS011;6757;52.258;12.840;2023-04-06T07:32:47;3.20;;;1.17;;
7460;SDS011;6757;52.258;12.840;2023-04-06T07:35:14;3.05;;;1.00;;
7460;SDS011;6757;52.258;12.840;2023-04-06T07:37:41;3.67;;;1.70;;
7460;SDS011;6757;52.258;12.840;2023-04-06T07:40:08;3.20;;;2.13;;
7460;SDS011;6757;52.258;12.840;2023-04-06T07:42:37;1.73;;;1.05;;
7460;SDS011;6757;52.258;12.840;2023-04-06T07:45:04;2.72;;;1.67;;
7460;SDS011;6757;52.258;12.840;2023-04-06T07:47:32;5.43;;;1.85;;
7460;SDS011;6757;52.258;12.840;2023-04-06T07:49:59;1.65;;;1.17;;
7460;SDS011;6757;52.258;12.840;2023-04-06T07:52:26;1.27;;;1.17;;
7460;SDS011;6757;52.258;12.840;2023-04-06T07:54:53;3.72;;;1.63;;
7460;SDS011;6757;52.258;12.840;2023-04-06T07:57:20;5.47;;;2.33;;
7460;SDS011;6757;52.258;12.840;2023-04-06T07:59:48;5.13;;;2.33;;
7460;SDS011;6757;52.258;12.840;2023-04-06T08:02:15;2.38;;;1.58;;
7460;SDS011;6757;52.258;12.840;2023-04-06T08:04:42;4.47;;;2.10;;
7460;SDS011;6757;52.258;12.840;2023-04-06T08:07:09;5.28;;;2.10;;
7460;SDS011;6757;52.258;12.840;2023-04-06T08:09:36;6.35;;;2.10;;
7460;SDS011;6757;52.258;12.840;2023-04-06T08:12:03;3.65;;;2.08;;
7460;SDS011;6757;52.258;12.840;2023-04-06T08:14:30;5.75;;;2.53;;
7460;SDS011;6757;52.258;12.840;2023-04-06T08:16:59;3.00;;;2.08;;
7460;SDS011;6757;52.258;12.840;2023-04-06T08:19:25;9.13;;;2.28;;
7460;SDS011;6757;52.258;12.840;2023-04-06T08:21:52;3.75;;;2.38;;
7460;SDS011;6757;52.258;12.840;2023-04-06T08:24:19;3.78;;;1.85;;
7460;SDS011;6757;52.258;12.840;2023-04-06T08:26:46;3.53;;;2.05;;
7460;SDS011;6757;52.258;12.840;2023-04-06T08:29:13;5.90;;;2.63;;
7460;SDS011;6757;52.258;12.840;2023-04-06T08:31:41;4.15;;;2.15;;
7460;SDS011;6757;52.258;12.840;2023-04-06T08:34:09;6.07;;;2.42;;
7460;SDS011;6757;52.258;12.840;2023-04-06T08:36:36;9.52;;;2.80;;
7460;SDS011;6757;52.258;12.840;2023-04-06T08:39:03;5.80;;;2.63;;
7460;SDS011;6757;52.258;12.840;2023-04-06T08:41:29;3.35;;;1.77;;
7460;SDS011;6757;52.258;12.840;2023-04-06T08:43:57;6.20;;;2.97;;
7460;SDS011;6757;52.258;12.840;2023-04-06T08:46:26;3.25;;;1.85;;
7460;SDS011;6757;52.258;12.840;2023-04-06T08:48:55;4.30;;;1.83;;
7460;SDS011;6757;52.258;12.840;2023-04-06T08:51:24;5.88;;;2.45;;
7460;SDS011;6757;52.258;12.840;2023-04-06T08:53:53;4.25;;;1.85;;
7460;SDS011;6757;52.258;12.840;2023-04-06T08:56:21;2.80;;;1.75;;
7460;SDS011;6757;52.258;12.840;2023-04-06T08:58:49;2.47;;;1.33;;
7460;SDS011;6757;52.258;12.840;2023-04-06T09:01:17;8.23;;;2.10;;
7460;SDS011;6757;52.258;12.840;2023-04-06T09:03:48;3.47;;;2.20;;
7460;SDS011;6757;52.258;12.840;2023-04-06T09:06:16;8.30;;;2.83;;
7460;SDS011;6757;52.258;12.840;2023-04-06T09:08:45;6.30;;;2.33;;
7460;SDS011;6757;52.258;12.840;2023-04-06T09:11:12;8.10;;;2.83;;
7460;SDS011;6757;52.258;12.840;2023-04-06T09:13:45;6.15;;;3.05;;
7460;SDS011;6757;52.258;12.840;2023-04-06T09:16:14;5.50;;;2.83;;
7460;SDS011;6757;52.258;12.840;2023-04-06T09:18:41;6.90;;;2.63;;
7460;SDS011;6757;52.258;12.840;2023-04-06T09:21:08;6.90;;;2.67;;
7460;SDS011;6757;52.258;12.840;2023-04-06T09:23:35;6.13;;;2.72;;
7460;SDS011;6757;52.258;12.840;2023-04-06T09:26:06;5.82;;;2.80;;
7460;SDS011;6757;52.258;12.840;2023-04-06T09:28:42;6.03;;;2.63;;
7460;SDS011;6757;52.258;12.840;2023-04-06T09:31:11;7.68;;;2.63;;
7460;SDS011;6757;52.258;12.840;2023-04-06T09:33:39;5.53;;;2.25;;
7460;SDS011;6757;52.258;12.840;2023-04-06T09:36:08;5.80;;;2.47;;
7460;SDS011;6757;52.258;12.840;2023-04-06T09:38:36;3.72;;;1.77;;
7460;SDS011;6757;52.258;12.840;2023-04-06T09:41:05;4.78;;;2.22;;
7460;SDS011;6757;52.258;12.840;2023-04-06T09:43:32;4.88;;;2.08;;
7460;SDS011;6757;52.258;12.840;2023-04-06T09:46:00;7.55;;;3.08;;
7460;SDS011;6757;52.258;12.840;2023-04-06T09:48:29;4.90;;;2.83;;
7460;SDS011;6757;52.258;12.840;2023-04-06T09:50:59;7.28;;;2.97;;
7460;SDS011;6757;52.258;12.840;2023-04-06T09:53:30;6.45;;;2.45;;
7460;SDS011;6757;52.258;12.840;2023-04-06T09:56:02;6.22;;;2.40;;
7460;SDS011;6757;52.258;12.840;2023-04-06T09:58:33;6.63;;;2.72;;
7460;SDS011;6757;52.258;12.840;2023-04-06T10:01:05;7.32;;;2.78;;
7460;SDS011;6757;52.258;12.840;2023-04-06T10:03:36;5.32;;;2.78;;
7460;SDS011;6757;52.258;12.840;2023-04-06T10:06:13;5.28;;;2.67;;
7460;SDS011;6757;52.258;12.840;2023-04-06T10:08:41;7.53;;;2.35;;
7460;SDS011;6757;52.258;12.840;2023-04-06T10:11:13;2.83;;;2.22;;
7460;SDS011;6757;52.258;12.840;2023-04-06T10:13:41;7.07;;;2.53;;
7460;SDS011;6757;52.258;12.840;2023-04-06T10:16:09;7.25;;;3.50;;
7460;SDS011;6757;52.258;12.840;2023-04-06T10:18:36;4.45;;;2.33;;
7460;SDS011;6757;52.258;12.840;2023-04-06T10:21:09;9.35;;;3.03;;
7460;SDS011;6757;52.258;12.840;2023-04-06T10:23:40;5.38;;;2.33;;
7460;SDS011;6757;52.258;12.840;2023-04-06T10:26:13;5.88;;;2.65;;
7460;SDS011;6757;52.258;12.840;2023-04-06T10:28:42;4.55;;;2.40;;
7460;SDS011;6757;52.258;12.840;2023-04-06T10:31:12;7.30;;;2.60;;
7460;SDS011;6757;52.258;12.840;2023-04-06T10:33:39;3.85;;;2.33;;
7460;SDS011;6757;52.258;12.840;2023-04-06T10:36:10;7.65;;;2.67;;
7460;SDS011;6757;52.258;12.840;2023-04-06T10:38:38;4.13;;;2.33;;
7460;SDS011;6757;52.258;12.840;2023-04-06T10:41:06;5.95;;;2.67;;
7460;SDS011;6757;52.258;12.840;2023-04-06T10:43:37;6.78;;;2.55;;
7460;SDS011;6757;52.258;12.840;2023-04-06T10:46:06;9.52;;;3.38;;
7460;SDS011;6757;52.258;12.840;2023-04-06T10:48:37;6.50;;;2.70;;
7460;SDS011;6757;52.258;12.840;2023-04-06T10:51:10;4.68;;;2.22;;
7460;SDS011;6757;52.258;12.840;2023-04-06T10:53:38;6.65;;;2.58;;
7460;SDS011;6757;52.258;12.840;2023-04-06T10:56:09;5.60;;;2.47;;
7460;SDS011;6757;52.258;12.840;2023-04-06T10:58:43;5.45;;;2.50;;
7460;SDS011;6757;52.258;12.840;2023-04-06T11:01:12;6.25;;;2.75;;
7460;SDS011;6757;52.258;12.840;2023-04-06T11:03:43;6.35;;;2.90;;
7460;SDS011;6757;52.258;12.840;2023-04-06T11:06:10;6.55;;;2.80;;
7460;SDS011;6757;52.258;12.840;2023-04-06T11:08:44;6.32;;;2.78;;
7460;SDS011;6757;52.258;12.840;2023-04-06T11:11:11;5.80;;;2.42;;
7460;SDS011;6757;52.258;12.840;2023-04-06T11:13:42;6.05;;;2.83;;
7460;SDS011;6757;52.258;12.840;2023-04-06T11:16:12;10.82;;;3.25;;
7460;SDS011;6757;52.258;12.840;2023-04-06T11:18:54;10.30;;;3.30;;
7460;SDS011;6757;52.258;12.840;2023-04-06T11:24:08;7.53;;;2.67;;
7460;SDS011;6757;52.258;12.840;2023-04-06T11:26:37;4.15;;;2.45;;
7460;SDS011;6757;52.258;12.840;2023-04-06T11:29:07;8.65;;;2.80;;
7460;SDS011;6757;52.258;12.840;2023-04-06T11:31:38;7.78;;;2.97;;
7460;SDS011;6757;52.258;12.840;2023-04-06T11:34:09;8.98;;;3.13;;
7460;SDS011;6757;52.258;12.840;2023-04-06T11:36:39;9.45;;;3.47;;
7460;SDS011;6757;52.258;12.840;2023-04-06T11:39:08;7.72;;;3.58;;
7460;SDS011;6757;52.258;12.840;2023-04-06T11:41:35;5.97;;;2.85;;
7460;SDS011;6757;52.258;12.840;2023-04-06T11:44:02;6.68;;;2.65;;
7460;SDS011;6757;52.258;12.840;2023-04-06T11:46:31;8.10;;;3.00;;
7460;SDS011;6757;52.258;12.840;2023-04-06T11:48:58;6.93;;;2.97;;
7460;SDS011;6757;52.258;12.840;2023-04-06T11:51:26;5.22;;;2.67;;
7460;SDS011;6757;52.258;12.840;2023-04-06T11:53:53;4.65;;;2.30;;
7460;SDS011;6757;52.258;12.840;2023-04-06T11:56:24;7.13;;;2.60;;
7460;SDS011;6757;52.258;12.840;2023-04-06T11:58:53;6.53;;;2.63;;
7460;SDS011;6757;52.258;12.840;2023-04-06T12:01:21;7.95;;;2.85;;
7460;SDS011;6757;52.258;12.840;2023-04-06T12:03:50;8.98;;;3.45;;
7460;SDS011;6757;52.258;12.840;2023-04-06T12:06:18;8.00;;;3.28;;
7460;SDS011;6757;52.258;12.840;2023-04-06T12:08:45;4.47;;;2.70;;
7460;SDS011;6757;52.258;12.840;2023-04-06T12:11:12;6.80;;;3.13;;
7460;SDS011;6757;52.258;12.840;2023-04-06T12:13:38;9.13;;;3.00;;
7460;SDS011;6757;52.258;12.840;2023-04-06T12:16:05;5.05;;;2.47;;
7460;SDS011;6757;52.258;12.840;2023-04-06T12:18:32;6.90;;;2.65;;
7460;SDS011;6757;52.258;12.840;2023-04-06T12:21:01;5.90;;;2.80;;
7460;SDS011;6757;52.258;12.840;2023-04-06T12:23:28;4.68;;;2.45;;
7460;SDS011;6757;52.258;12.840;2023-04-06T12:25:54;6.80;;;2.83;;
7460;SDS011;6757;52.258;12.840;2023-04-06T12:28:21;6.63;;;2.63;;
7460;SDS011;6757;52.258;12.840;2023-04-06T12:30:51;7.35;;;2.72;;
7460;SDS011;6757;52.258;12.840;2023-04-06T12:33:19;7.65;;;3.03;;
7460;SDS011;6757;52.258;12.840;2023-04-06T12:35:46;8.73;;;3.22;;
7460;SDS011;6757;52.258;12.840;2023-04-06T12:38:14;6.10;;;2.58;;
7460;SDS011;6757;52.258;12.840;2023-04-06T12:40:42;5.13;;;2.50;;
7460;SDS011;6757;52.258;12.840;2023-04-06T12:43:08;8.43;;;2.65;;
7460;SDS011;6757;52.258;12.840;2023-04-06T12:45:35;6.78;;;2.30;;
7460;SDS011;6757;52.258;12.840;2023-04-06T12:48:02;5.75;;;2.40;;
7460;SDS011;6757;52.258;12.840;2023-04-06T12:50:29;7.22;;;3.10;;
7460;SDS011;6757;52.258;12.840;2023-04-06T12:52:56;5.75;;;2.70;;
7460;SDS011;6757;52.258;12.840;2023-04-06T12:55:24;7.05;;;2.78;;
7460;SDS011;6757;52.258;12.840;2023-04-06T12:57:51;8.38;;;3.00;;
7460;SDS011;6757;52.258;12.840;2023-04-06T13:00:18;5.80;;;2.40;;
7460;SDS011;6757;52.258;12.840;2023-04-06T13:02:47;8.00;;;3.25;;
7460;SDS011;6757;52.258;12.840;2023-04-06T13:05:13;5.88;;;2.60;;
7460;SDS011;6757;52.258;12.840;2023-04-06T13:07:43;5.65;;;2.30;;
7460;SDS011;6757;52.258;12.840;2023-04-06T13:10:11;5.65;;;2.72;;
7460;SDS011;6757;52.258;12.840;2023-04-06T13:12:40;7.20;;;2.40;;
7460;SDS011;6757;52.258;12.840;2023-04-06T13:15:07;6.85;;;3.08;;
7460;SDS011;6757;52.258;12.840;2023-04-06T13:17:35;7.55;;;2.90;;
7460;SDS011;6757;52.258;12.840;2023-04-06T13:20:02;6.15;;;3.00;;
7460;SDS011;6757;52.258;12.840;2023-04-06T13:22:29;5.85;;;2.85;;
7460;SDS011;6757;52.258;12.840;2023-04-06T13:24:56;7.78;;;2.65;;
7460;SDS011;6757;52.258;12.840;2023-04-06T13:27:23;9.90;;;2.97;;
7460;SDS011;6757;52.258;12.840;2023-04-06T13:29:51;6.22;;;2.70;;
7460;SDS011;6757;52.258;12.840;2023-04-06T13:32:18;9.25;;;3.38;;
7460;SDS011;6757;52.258;12.840;2023-04-06T13:34:46;6.50;;;2.90;;
7460;SDS011;6757;52.258;12.840;2023-04-06T13:37:13;4.97;;;2.55;;
7460;SDS011;6757;52.258;12.840;2023-04-06T13:39:41;7.63;;;3.05;;
7460;SDS011;6757;52.258;12.840;2023-04-06T13:42:07;4.57;;;2.45;;
7460;SDS011;6757;52.258;12.840;2023-04-06T13:44:35;8.05;;;2.78;;
7460;SDS011;6757;52.258;12.840;2023-04-06T13:47:03;5.30;;;2.90;;
7460;SDS011;6757;52.258;12.840;2023-04-06T13:49:30;3.92;;;2.53;;
7460;SDS011;6757;52.258;12.840;2023-04-06T13:51:57;5.78;;;2.88;;
7460;SDS011;6757;52.258;12.840;2023-04-06T13:54:25;6.40;;;2.92;;
7460;SDS011;6757;52.258;12.840;2023-04-06T13:56:52;7.13;;;2.80;;
7460;SDS011;6757;52.258;12.840;2023-04-06T13:59:20;7.00;;;2.90;;
7460;SDS011;6757;52.258;12.840;2023-04-06T14:01:47;4.78;;;2.45;;
7460;SDS011;6757;52.258;12.840;2023-04-06T14:04:15;6.63;;;2.72;;
7460;SDS011;6757;52.258;12.840;2023-04-06T14:06:44;4.60;;;2.90;;
7460;SDS011;6757;52.258;12.840;2023-04-06T14:09:11;6.28;;;2.92;;
7460;SDS011;6757;52.258;12.840;2023-04-06T14:11:38;6.13;;;2.55;;
7460;SDS011;6757;52.258;12.840;2023-04-06T14:14:05;5.95;;;2.90;;
7460;SDS011;6757;52.258;12.840;2023-04-06T14:16:32;6.78;;;2.70;;
7460;SDS011;6757;52.258;12.840;2023-04-06T14:18:58;6.57;;;2.88;;
7460;SDS011;6757;52.258;12.840;2023-04-06T14:21:27;6.30;;;3.10;;
7460;SDS011;6757;52.258;12.840;2023-04-06T14:23:54;7.60;;;2.83;;
7460;SDS011;6757;52.258;12.840;2023-04-06T14:26:21;4.95;;;2.53;;
7460;SDS011;6757;52.258;12.840;2023-04-06T14:28:49;6.38;;;2.83;;
7460;SDS011;6757;52.258;12.840;2023-04-06T14:31:16;4.05;;;2.53;;
7460;SDS011;6757;52.258;12.840;2023-04-06T14:33:44;4.72;;;2.42;;
7460;SDS011;6757;52.258;12.840;2023-04-06T14:36:11;3.92;;;2.60;;
7460;SDS011;6757;52.258;12.840;2023-04-06T14:38:39;6.85;;;3.20;;
7460;SDS011;6757;52.258;12.840;2023-04-06T14:41:08;7.88;;;3.15;;
7460;SDS011;6757;52.258;12.840;2023-04-06T14:43:41;5.13;;;2.85;;
7460;SDS011;6757;52.258;12.840;2023-04-06T14:46:07;5.47;;;2.88;;
7460;SDS011;6757;52.258;12.840;2023-04-06T14:48:34;4.47;;;2.75;;
7460;SDS011;6757;52.258;12.840;2023-04-06T14:51:02;5.85;;;2.95;;
7460;SDS011;6757;52.258;12.840;2023-04-06T14:53:29;7.13;;;2.63;;
7460;SDS011;6757;52.258;12.840;2023-04-06T14:55:57;7.32;;;2.55;;
7460;SDS011;6757;52.258;12.840;2023-04-06T14:58:24;8.68;;;3.45;;
7460;SDS011;6757;52.258;12.840;2023-04-06T15:00:54;6.15;;;2.85;;
7460;SDS011;6757;52.258;12.840;2023-04-06T15:03:22;7.88;;;3.40;;
7460;SDS011;6757;52.258;12.840;2023-04-06T15:05:50;4.47;;;2.50;;